Time;durP1;ratioP1;P1;durP2;ratioP2;P2;SDS_P1;SDS_P2;PMS_P1;PMS_P2;Temp;Humidity;BMP_temperature;BMP_pressure;BME280_temperature;BME280_humidity;BME280_pressure;Samples;Min_cycle;Max_cycle;Signal;HPM_P1;HPM_P2
2022/01/06 00:00:13;;;;;;;35.58;3.75;;;;;;;;;;5017963;28;20061;-67
2022/01/06 00:02:40;;;;;;;39.90;3.75;;;;;;;;;;5021452;28;20362;-66
2022/01/06 00:05:08;;;;;;;38.22;4.50;;;;;;;;;;5015479;28;20042;-65
2022/01/06 00:07:36;;;;;;;41.72;3.97;;;;;;;;;;5018926;28;20043;-66
2022/01/06 00:10:06;;;;;;;36.83;3.65;;;;;;;;;;5017352;28;20053;-66
2022/01/06 00:15:29;;;;;;;41.35;4.43;;;;;;;;;;4991062;28;20104;-66
2022/01/06 00:23:38;;;;;;;36.08;3.78;;;;;;;;;;5025680;28;20025;-66
2022/01/06 00:26:06;;;;;;;30.42;3.83;;;;;;;;;;5022541;28;20060;-67
2022/01/06 00:28:36;;;;;;;28.30;3.88;;;;;;;;;;5024072;28;20419;-64
2022/01/06 00:31:03;;;;;;;38.38;3.33;;;;;;;;;;5023919;28;20028;-64
2022/01/06 00:33:31;;;;;;;44.38;3.80;;;;;;;;;;5021270;28;20429;-64
2022/01/06 00:35:58;;;;;;;29.25;3.95;;;;;;;;;;5018643;28;20878;-65
2022/01/06 00:38:26;;;;;;;32.42;4.10;;;;;;;;;;5014148;28;20032;-68
2022/01/06 00:40:53;;;;;;;45.78;3.30;;;;;;;;;;5015671;28;20041;-69
2022/01/06 00:45:56;;;;;;;20.95;2.78;;;;;;;;;;5042376;23;20507;-64
2022/01/06 00:48:23;;;;;;;25.38;4.10;;;;;;;;;;5038427;28;20036;-66
2022/01/06 00:50:50;;;;;;;34.15;3.22;;;;;;;;;;5021277;28;20025;-65
2022/01/06 00:53:17;;;;;;;24.45;2.90;;;;;;;;;;5022107;28;20030;-64
2022/01/06 00:55:44;;;;;;;24.05;2.85;;;;;;;;;;5024428;28;20112;-65
2022/01/06 00:58:11;;;;;;;33.17;3.50;;;;;;;;;;5023661;28;20033;-66
2022/01/06 01:00:40;;;;;;;28.52;3.53;;;;;;;;;;5023496;28;20045;-64
2022/01/06 01:03:11;;;;;;;37.53;4.68;;;;;;;;;;5022247;28;20029;-65
2022/01/06 01:05:42;;;;;;;35.93;4.37;;;;;;;;;;5024123;28;20033;-67
2022/01/06 01:08:09;;;;;;;26.05;3.60;;;;;;;;;;5011399;28;20030;-69
2022/01/06 01:10:37;;;;;;;49.75;4.30;;;;;;;;;;5025710;28;20021;-66
2022/01/06 01:13:06;;;;;;;33.80;3.92;;;;;;;;;;5012965;28;20100;-68
2022/01/06 01:15:34;;;;;;;41.15;4.07;;;;;;;;;;5013674;28;20029;-65
2022/01/06 01:18:07;;;;;;;30.98;4.28;;;;;;;;;;5019772;28;20059;-67
2022/01/06 01:20:35;;;;;;;28.55;3.70;;;;;;;;;;5024401;28;20016;-69
2022/01/06 01:23:02;;;;;;;27.98;6.45;;;;;;;;;;5024914;28;20030;-64
2022/01/06 01:25:29;;;;;;;36.20;4.93;;;;;;;;;;5017297;28;20138;-66
2022/01/06 01:27:57;;;;;;;40.45;6.72;;;;;;;;;;5026356;28;20131;-67
2022/01/06 01:30:41;;;;;;;36.10;4.90;;;;;;;;;;5022218;28;20033;-64
2022/01/06 01:33:15;;;;;;;28.77;4.68;;;;;;;;;;5038678;28;20030;-67
2022/01/06 01:35:42;;;;;;;25.13;4.13;;;;;;;;;;5022375;28;20029;-67
2022/01/06 01:38:10;;;;;;;18.25;3.78;;;;;;;;;;5022049;28;20048;-67
2022/01/06 01:40:37;;;;;;;21.10;3.45;;;;;;;;;;5177056;23;20015;-65
2022/01/06 01:43:04;;;;;;;24.48;3.75;;;;;;;;;;5022905;28;20029;-67
2022/01/06 01:45:33;;;;;;;23.83;2.90;;;;;;;;;;5028633;28;20041;-64
2022/01/06 01:48:06;;;;;;;26.15;4.05;;;;;;;;;;5029016;28;20044;-66
2022/01/06 01:50:33;;;;;;;17.95;2.70;;;;;;;;;;5038767;28;20469;-65
2022/01/06 01:53:00;;;;;;;24.65;2.63;;;;;;;;;;5018140;28;20389;-67
2022/01/06 01:55:29;;;;;;;17.70;2.70;;;;;;;;;;5022034;28;20029;-66
2022/01/06 01:57:56;;;;;;;21.08;2.67;;;;;;;;;;5019642;28;20030;-66
2022/01/06 02:00:25;;;;;;;23.77;2.67;;;;;;;;;;5018561;28;20034;-66
2022/01/06 02:02:52;;;;;;;30.45;3.15;;;;;;;;;;5022504;28;20079;-65
2022/01/06 02:05:26;;;;;;;23.98;2.30;;;;;;;;;;5022671;28;20700;-68
2022/01/06 02:07:55;;;;;;;23.38;2.83;;;;;;;;;;5020238;28;20033;-64
2022/01/06 02:10:22;;;;;;;19.08;2.40;;;;;;;;;;5013838;28;20033;-64
2022/01/06 02:12:53;;;;;;;22.48;2.28;;;;;;;;;;5020028;28;20115;-64
2022/01/06 02:15:20;;;;;;;15.98;2.85;;;;;;;;;;5016754;28;20021;-64
2022/01/06 02:17:47;;;;;;;19.92;2.35;;;;;;;;;;5022210;28;20392;-64
2022/01/06 02:20:16;;;;;;;13.85;2.08;;;;;;;;;;5037199;28;20033;-65
2022/01/06 02:22:43;;;;;;;20.10;2.80;;;;;;;;;;5037484;28;20021;-64
2022/01/06 02:25:12;;;;;;;20.17;2.42;;;;;;;;;;5022490;28;20112;-65
2022/01/06 02:27:39;;;;;;;20.25;2.10;;;;;;;;;;5020868;28;20053;-66
2022/01/06 02:30:06;;;;;;;18.85;2.10;;;;;;;;;;5012231;28;20133;-65
2022/01/06 02:32:34;;;;;;;21.08;2.78;;;;;;;;;;5019088;28;20032;-64
2022/01/06 02:35:05;;;;;;;15.02;1.92;;;;;;;;;;5024120;28;20029;-64
2022/01/06 02:37:32;;;;;;;15.85;2.08;;;;;;;;;;5024104;28;20032;-64
2022/01/06 02:39:59;;;;;;;17.92;2.38;;;;;;;;;;5017726;28;20029;-65
2022/01/06 02:42:27;;;;;;;11.63;1.85;;;;;;;;;;4999246;28;20406;-65
2022/01/06 02:44:54;;;;;;;16.13;1.48;;;;;;;;;;4997744;28;20045;-65
2022/01/06 02:47:21;;;;;;;25.10;2.17;;;;;;;;;;5009475;28;20049;-67
2022/01/06 02:49:48;;;;;;;12.63;2.15;;;;;;;;;;5009061;28;20359;-65
2022/01/06 02:52:15;;;;;;;15.80;1.90;;;;;;;;;;5010275;28;20359;-65
2022/01/06 02:54:42;;;;;;;13.30;2.08;;;;;;;;;;5026229;28;20378;-65
2022/01/06 02:57:10;;;;;;;21.15;2.90;;;;;;;;;;5009611;28;20364;-65
2022/01/06 02:59:37;;;;;;;15.88;2.97;;;;;;;;;;5009373;28;20040;-66
2022/01/06 03:02:04;;;;;;;11.90;2.40;;;;;;;;;;5007691;28;20018;-67
2022/01/06 03:04:31;;;;;;;10.15;2.20;;;;;;;;;;5006853;28;20386;-64
2022/01/06 03:07:00;;;;;;;13.55;2.10;;;;;;;;;;5008609;28;20033;-65
2022/01/06 03:09:37;;;;;;;14.02;2.38;;;;;;;;;;5007699;28;20173;-66
2022/01/06 03:12:18;;;;;;;18.05;2.25;;;;;;;;;;5007810;28;20022;-65
2022/01/06 03:14:45;;;;;;;27.58;2.80;;;;;;;;;;5008053;28;20143;-66
2022/01/06 03:17:12;;;;;;;25.27;2.50;;;;;;;;;;5006844;28;20057;-64
2022/01/06 03:19:40;;;;;;;15.82;2.75;;;;;;;;;;5006265;28;20034;-66
2022/01/06 03:22:09;;;;;;;18.83;2.03;;;;;;;;;;4999641;28;20033;-64
2022/01/06 03:24:36;;;;;;;17.27;2.42;;;;;;;;;;5003120;28;20544;-66
2022/01/06 03:27:03;;;;;;;14.98;2.15;;;;;;;;;;5009106;28;20389;-67
2022/01/06 03:29:30;;;;;;;12.30;2.40;;;;;;;;;;5010142;28;20030;-67
2022/01/06 03:31:58;;;;;;;16.05;2.90;;;;;;;;;;5001524;28;20041;-65
2022/01/06 03:34:26;;;;;;;25.30;2.67;;;;;;;;;;5001816;28;20022;-65
2022/01/06 03:36:53;;;;;;;20.88;2.58;;;;;;;;;;5004121;28;20036;-64
2022/01/06 03:39:21;;;;;;;11.98;1.90;;;;;;;;;;5011651;28;20034;-66
2022/01/06 03:41:48;;;;;;;15.00;2.33;;;;;;;;;;5006532;28;20049;-64
2022/01/06 03:44:15;;;;;;;14.02;2.55;;;;;;;;;;5003915;28;20042;-65
2022/01/06 03:46:42;;;;;;;12.95;2.50;;;;;;;;;;5009222;28;20037;-67
2022/01/06 03:49:09;;;;;;;11.82;1.95;;;;;;;;;;5001517;28;20065;-66
2022/01/06 03:51:36;;;;;;;17.27;2.05;;;;;;;;;;4999673;28;20034;-66
2022/01/06 03:54:03;;;;;;;11.85;2.20;;;;;;;;;;5004128;28;20049;-66
2022/01/06 03:56:30;;;;;;;16.75;2.53;;;;;;;;;;5001614;28;20481;-66
2022/01/06 03:58:58;;;;;;;13.80;2.22;;;;;;;;;;4998811;28;20066;-67
2022/01/06 04:01:25;;;;;;;7.53;1.70;;;;;;;;;;5004537;28;20504;-66
2022/01/06 04:03:52;;;;;;;10.30;2.05;;;;;;;;;;4999907;28;20397;-66
2022/01/06 04:06:19;;;;;;;7.78;1.88;;;;;;;;;;5001416;28;20026;-64
2022/01/06 04:08:46;;;;;;;9.35;2.13;;;;;;;;;;5018633;28;20041;-66
2022/01/06 04:11:13;;;;;;;22.17;2.10;;;;;;;;;;5009312;28;20029;-65
2022/01/06 04:13:40;;;;;;;18.90;1.98;;;;;;;;;;5009584;28;20033;-64
2022/01/06 04:16:18;;;;;;;10.95;1.77;;;;;;;;;;5009295;28;20022;-63
2022/01/06 04:18:53;;;;;;;10.70;1.60;;;;;;;;;;5007187;28;20664;-66
2022/01/06 04:21:21;;;;;;;14.90;1.90;;;;;;;;;;5008514;28;20026;-64
2022/01/06 04:23:49;;;;;;;9.63;2.00;;;;;;;;;;5002713;28;20263;-64
2022/01/06 04:26:16;;;;;;;9.93;1.88;;;;;;;;;;5009295;28;20022;-68
2022/01/06 04:28:43;;;;;;;8.52;1.92;;;;;;;;;;5009150;28;20025;-63
2022/01/06 04:31:12;;;;;;;9.57;1.83;;;;;;;;;;5007934;28;20026;-64
2022/01/06 04:33:39;;;;;;;14.63;1.92;;;;;;;;;;5009226;28;20026;-63
2022/01/06 04:36:08;;;;;;;9.73;1.80;;;;;;;;;;5008913;28;20036;-65
2022/01/06 04:38:36;;;;;;;13.90;2.17;;;;;;;;;;5008891;28;20637;-65
2022/01/06 04:41:04;;;;;;;6.70;1.80;;;;;;;;;;5006771;28;20133;-64
2022/01/06 04:43:31;;;;;;;16.38;1.58;;;;;;;;;;5023905;28;20477;-64
2022/01/06 04:45:59;;;;;;;11.40;1.70;;;;;;;;;;5006932;28;20101;-62
2022/01/06 04:48:27;;;;;;;11.65;1.70;;;;;;;;;;5008655;28;20144;-63
2022/01/06 04:50:54;;;;;;;10.35;1.70;;;;;;;;;;5007807;28;20026;-63
2022/01/06 04:53:21;;;;;;;9.63;1.50;;;;;;;;;;5008523;28;20017;-66
2022/01/06 04:55:51;;;;;;;6.53;1.45;;;;;;;;;;5012584;28;20072;-65
2022/01/06 04:58:18;;;;;;;7.63;1.60;;;;;;;;;;5011730;28;20025;-68
2022/01/06 05:00:45;;;;;;;10.25;1.50;;;;;;;;;;5012939;28;20030;-68
2022/01/06 05:03:12;;;;;;;6.10;1.67;;;;;;;;;;5014592;28;20014;-68
2022/01/06 05:05:39;;;;;;;9.88;1.80;;;;;;;;;;5014312;28;20030;-64
2022/01/06 05:08:06;;;;;;;10.00;1.60;;;;;;;;;;5014275;28;20044;-67
2022/01/06 05:10:33;;;;;;;7.13;1.40;;;;;;;;;;5013684;28;20026;-67
2022/01/06 05:13:00;;;;;;;5.70;1.27;;;;;;;;;;5013598;28;20018;-65
2022/01/06 05:15:27;;;;;;;9.57;1.63;;;;;;;;;;5014082;28;20531;-68
2022/01/06 05:17:54;;;;;;;10.80;1.83;;;;;;;;;;5013577;28;20121;-68
2022/01/06 05:20:25;;;;;;;8.15;1.50;;;;;;;;;;5012070;28;20030;-68
2022/01/06 05:22:55;;;;;;;9.52;1.33;;;;;;;;;;5012852;28;20389;-68
2022/01/06 05:25:26;;;;;;;6.82;1.30;;;;;;;;;;5010265;28;20037;-68
2022/01/06 05:27:54;;;;;;;8.35;1.15;;;;;;;;;;5012796;28;20026;-69
2022/01/06 05:30:21;;;;;;;15.63;1.90;;;;;;;;;;5009763;28;20022;-67
2022/01/06 05:32:48;;;;;;;5.90;1.27;;;;;;;;;;5012717;28;20018;-68
2022/01/06 05:35:21;;;;;;;5.85;1.30;;;;;;;;;;5013224;28;20025;-68
2022/01/06 05:37:49;;;;;;;8.68;1.30;;;;;;;;;;5043964;28;20034;-69
2022/01/06 05:40:16;;;;;;;8.10;1.27;;;;;;;;;;5012636;28;20041;-68
2022/01/06 05:42:43;;;;;;;9.00;1.50;;;;;;;;;;5013536;28;20046;-67
2022/01/06 05:45:12;;;;;;;5.40;1.23;;;;;;;;;;5013200;28;20092;-67
2022/01/06 05:47:39;;;;;;;5.85;1.38;;;;;;;;;;5013825;28;20065;-66
2022/01/06 05:50:06;;;;;;;14.73;1.80;;;;;;;;;;5013938;28;20036;-67
2022/01/06 05:52:33;;;;;;;8.68;1.70;;;;;;;;;;5013003;28;20022;-68
2022/01/06 05:55:00;;;;;;;7.63;1.00;;;;;;;;;;5013748;28;20109;-66
2022/01/06 05:57:27;;;;;;;11.52;1.83;;;;;;;;;;5013930;28;20026;-67
2022/01/06 05:59:54;;;;;;;6.05;1.35;;;;;;;;;;5013073;28;20156;-68
2022/01/06 06:02:21;;;;;;;10.07;1.55;;;;;;;;;;4994031;28;20021;-67
2022/01/06 06:04:48;;;;;;;11.02;1.67;;;;;;;;;;4993786;28;20034;-67
2022/01/06 06:07:17;;;;;;;4.15;1.35;;;;;;;;;;5002420;28;20369;-65
2022/01/06 06:09:44;;;;;;;11.75;1.45;;;;;;;;;;5013025;28;20053;-68
2022/01/06 06:12:11;;;;;;;10.32;1.15;;;;;;;;;;5012733;28;20052;-68
2022/01/06 06:14:38;;;;;;;6.75;1.08;;;;;;;;;;5012109;28;20377;-68
2022/01/06 06:17:05;;;;;;;10.40;1.60;;;;;;;;;;5013117;28;20470;-66
2022/01/06 06:19:33;;;;;;;7.25;1.20;;;;;;;;;;5012945;28;20064;-68
2022/01/06 06:22:00;;;;;;;6.18;1.10;;;;;;;;;;5012551;28;20362;-67
2022/01/06 06:24:27;;;;;;;12.63;1.73;;;;;;;;;;5013239;28;20038;-68
2022/01/06 06:26:54;;;;;;;10.60;1.58;;;;;;;;;;5028103;28;20030;-67
2022/01/06 06:29:21;;;;;;;10.20;1.58;;;;;;;;;;5013349;28;20129;-68
2022/01/06 06:31:48;;;;;;;10.55;1.95;;;;;;;;;;5012893;28;20021;-67
2022/01/06 06:34:15;;;;;;;7.05;1.48;;;;;;;;;;5013420;28;20503;-68
2022/01/06 06:36:42;;;;;;;11.48;1.20;;;;;;;;;;5013307;28;20025;-68
2022/01/06 06:39:09;;;;;;;7.43;1.15;;;;;;;;;;5013190;28;20026;-67
2022/01/06 06:41:36;;;;;;;8.15;1.45;;;;;;;;;;5011706;28;20046;-67
2022/01/06 06:44:03;;;;;;;5.93;1.02;;;;;;;;;;5013276;28;20030;-67
2022/01/06 06:46:30;;;;;;;6.22;1.30;;;;;;;;;;5012559;28;20022;-68
2022/01/06 06:48:57;;;;;;;6.60;1.10;;;;;;;;;;5012997;28;20033;-67
2022/01/06 06:51:24;;;;;;;9.25;1.30;;;;;;;;;;5012771;28;20025;-68
2022/01/06 06:53:51;;;;;;;10.25;1.42;;;;;;;;;;5012293;28;20084;-66
2022/01/06 06:56:18;;;;;;;12.50;1.70;;;;;;;;;;5012859;28;20076;-67
2022/01/06 06:58:45;;;;;;;7.28;1.55;;;;;;;;;;5012969;28;20026;-68
2022/01/06 07:01:12;;;;;;;10.48;1.80;;;;;;;;;;5011649;28;20109;-67
2022/01/06 07:03:39;;;;;;;5.85;1.17;;;;;;;;;;5012750;28;20041;-66
2022/01/06 07:06:06;;;;;;;7.90;1.27;;;;;;;;;;5012802;28;20253;-67
2022/01/06 07:08:33;;;;;;;16.73;1.67;;;;;;;;;;5012553;28;20529;-67
2022/01/06 07:11:00;;;;;;;8.30;1.20;;;;;;;;;;5011569;28;20095;-68
2022/01/06 07:13:27;;;;;;;4.85;1.20;;;;;;;;;;5027439;28;20018;-69
2022/01/06 07:15:54;;;;;;;6.68;1.20;;;;;;;;;;5012524;28;20022;-68
2022/01/06 07:18:21;;;;;;;16.30;1.50;;;;;;;;;;5012202;28;20033;-68
2022/01/06 07:20:48;;;;;;;9.07;1.30;;;;;;;;;;5011856;28;20030;-68
2022/01/06 07:23:15;;;;;;;11.38;1.35;;;;;;;;;;5010797;28;20021;-67
2022/01/06 07:25:42;;;;;;;10.07;1.35;;;;;;;;;;5012016;28;20061;-68
2022/01/06 07:28:09;;;;;;;12.85;2.85;;;;;;;;;;5011034;28;20026;-66
2022/01/06 07:30:36;;;;;;;13.07;2.30;;;;;;;;;;5011985;28;20113;-67
2022/01/06 07:33:04;;;;;;;8.07;1.77;;;;;;;;;;5011659;28;20026;-67
2022/01/06 07:35:31;;;;;;;10.35;1.70;;;;;;;;;;5012275;28;20384;-67
2022/01/06 07:37:57;;;;;;;11.13;1.70;;;;;;;;;;5012179;28;20083;-68
2022/01/06 07:40:24;;;;;;;12.00;1.80;;;;;;;;;;5011765;28;20026;-68
2022/01/06 07:42:52;;;;;;;5.43;1.40;;;;;;;;;;5011414;28;20128;-69
2022/01/06 07:45:19;;;;;;;7.97;1.35;;;;;;;;;;5012016;28;20029;-67
2022/01/06 07:48:02;;;;;;;11.57;1.65;;;;;;;;;;5011948;28;20097;-67
2022/01/06 07:50:28;;;;;;;;;;;;;;;;;;5012262;28;20574;-69
2022/01/06 07:52:55;;;;;;;7.03;0.95;;;;;;;;;;5010792;28;19905;-69
2022/01/06 07:55:22;;;;;;;12.45;1.83;;;;;;;;;;5011811;28;20036;-67
2022/01/06 07:57:50;;;;;;;9.68;1.42;;;;;;;;;;5011080;28;20022;-68
2022/01/06 08:00:18;;;;;;;11.55;1.85;;;;;;;;;;5011344;28;20018;-68
2022/01/06 08:02:45;;;;;;;9.88;1.70;;;;;;;;;;5010236;28;20381;-68
2022/01/06 08:05:14;;;;;;;6.20;1.48;;;;;;;;;;5010936;28;20611;-66
2022/01/06 08:07:41;;;;;;;8.32;1.52;;;;;;;;;;5011792;28;20028;-66
2022/01/06 08:10:08;;;;;;;4.45;1.40;;;;;;;;;;5011658;28;20034;-67
2022/01/06 08:12:35;;;;;;;12.20;2.45;;;;;;;;;;5010649;28;20095;-67
2022/01/06 08:15:02;;;;;;;19.77;3.10;;;;;;;;;;5011864;28;20038;-67
2022/01/06 08:17:29;;;;;;;17.38;3.35;;;;;;;;;;5011107;28;20026;-67
2022/01/06 08:19:57;;;;;;;18.55;3.40;;;;;;;;;;5011556;28;20033;-66
2022/01/06 08:22:24;;;;;;;10.77;2.85;;;;;;;;;;5010738;28;20022;-68
2022/01/06 08:24:55;;;;;;;13.65;2.50;;;;;;;;;;5011464;28;20042;-67
2022/01/06 08:27:23;;;;;;;10.70;2.42;;;;;;;;;;5011481;28;20068;-67
2022/01/06 08:29:51;;;;;;;14.82;2.45;;;;;;;;;;5012283;28;20029;-67
2022/01/06 08:32:18;;;;;;;9.27;1.88;;;;;;;;;;5015086;28;20097;-67
2022/01/06 08:34:46;;;;;;;14.55;2.30;;;;;;;;;;5014919;28;20021;-67
2022/01/06 08:37:13;;;;;;;9.27;2.45;;;;;;;;;;5015402;28;20025;-67
2022/01/06 08:39:40;;;;;;;12.82;2.75;;;;;;;;;;5015520;28;20034;-68
2022/01/06 08:42:07;;;;;;;11.52;2.97;;;;;;;;;;5014197;28;20390;-67
2022/01/06 08:44:34;;;;;;;10.35;2.50;;;;;;;;;;5014631;28;20053;-67
2022/01/06 08:47:01;;;;;;;13.25;2.25;;;;;;;;;;5014920;28;20076;-67
2022/01/06 08:49:29;;;;;;;9.90;2.60;;;;;;;;;;5014322;28;20033;-66
2022/01/06 08:51:56;;;;;;;8.60;2.10;;;;;;;;;;5015049;28;20018;-67
2022/01/06 08:54:23;;;;;;;10.68;1.60;;;;;;;;;;5014770;28;20568;-66
2022/01/06 08:56:50;;;;;;;10.23;2.65;;;;;;;;;;5015004;28;20026;-66
2022/01/06 08:59:17;;;;;;;12.35;2.38;;;;;;;;;;5013857;28;20034;-68
2022/01/06 09:01:44;;;;;;;10.52;2.03;;;;;;;;;;5030040;28;20026;-68
2022/01/06 09:04:11;;;;;;;6.32;2.05;;;;;;;;;;5013253;28;20417;-67
2022/01/06 09:06:38;;;;;;;10.75;1.60;;;;;;;;;;5014612;28;20034;-69
2022/01/06 09:09:05;;;;;;;10.32;1.83;;;;;;;;;;5015046;28;20033;-67
2022/01/06 09:11:32;;;;;;;19.42;1.70;;;;;;;;;;5014744;28;20059;-67
2022/01/06 09:13:59;;;;;;;15.75;1.58;;;;;;;;;;5013835;28;20033;-67
2022/01/06 09:16:26;;;;;;;13.93;2.42;;;;;;;;;;5014847;28;20473;-68
2022/01/06 09:18:53;;;;;;;18.88;1.60;;;;;;;;;;5014208;28;20021;-67
2022/01/06 09:21:22;;;;;;;14.20;1.38;;;;;;;;;;5014696;28;20500;-67
2022/01/06 09:23:53;;;;;;;19.58;1.98;;;;;;;;;;5014168;28;20029;-68
2022/01/06 09:26:20;;;;;;;25.90;1.77;;;;;;;;;;5014685;28;20149;-67
2022/01/06 09:28:47;;;;;;;12.18;1.88;;;;;;;;;;5029057;28;20033;-68
2022/01/06 09:31:14;;;;;;;11.82;1.48;;;;;;;;;;5014426;28;20037;-67
2022/01/06 09:33:41;;;;;;;9.10;2.03;;;;;;;;;;5013514;28;20033;-67
2022/01/06 09:36:08;;;;;;;22.83;2.22;;;;;;;;;;5014367;28;20096;-67
2022/01/06 09:38:35;;;;;;;15.35;2.38;;;;;;;;;;5013608;28;20030;-69
2022/01/06 09:41:05;;;;;;;15.57;1.80;;;;;;;;;;5013376;28;20048;-67
2022/01/06 09:43:32;;;;;;;16.33;1.58;;;;;;;;;;5014076;28;20068;-68
2022/01/06 09:46:04;;;;;;;10.10;1.38;;;;;;;;;;5013902;28;20489;-68
2022/01/06 09:48:31;;;;;;;12.15;1.60;;;;;;;;;;5014186;28;20026;-67
2022/01/06 09:50:58;;;;;;;7.25;1.20;;;;;;;;;;5013445;28;20034;-68
2022/01/06 09:53:26;;;;;;;16.45;1.50;;;;;;;;;;5013489;28;20018;-69
2022/01/06 09:55:53;;;;;;;8.82;1.33;;;;;;;;;;5014164;28;20033;-67
2022/01/06 09:58:29;;;;;;;11.43;1.60;;;;;;;;;;5013512;28;20049;-68
2022/01/06 10:00:56;;;;;;;16.83;1.98;;;;;;;;;;5013750;28;20752;-67
2022/01/06 10:03:34;;;;;;;28.08;2.10;;;;;;;;;;5013207;28;20053;-68
2022/01/06 10:06:30;;;;;;;11.88;1.80;;;;;;;;;;5013745;28;20034;-67
2022/01/06 10:08:59;;;;;;;15.52;1.83;;;;;;;;;;5000764;28;20038;-67
2022/01/06 10:11:36;;;;;;;21.67;2.38;;;;;;;;;;5012922;28;20152;-68
2022/01/06 10:14:10;;;;;;;17.75;1.95;;;;;;;;;;5013550;28;20030;-68
2022/01/06 10:16:45;;;;;;;5.95;1.35;;;;;;;;;;5013216;28;20073;-68
2022/01/06 10:19:14;;;;;;;12.60;1.45;;;;;;;;;;5013577;28;20045;-69
2022/01/06 10:21:42;;;;;;;15.38;2.40;;;;;;;;;;5028630;28;20026;-68
2022/01/06 10:24:11;;;;;;;16.67;2.00;;;;;;;;;;5012246;28;20040;-69
2022/01/06 10:26:39;;;;;;;20.90;2.05;;;;;;;;;;5013339;28;20478;-67
2022/01/06 10:29:08;;;;;;;12.05;1.80;;;;;;;;;;5013374;28;20037;-70
2022/01/06 10:31:35;;;;;;;16.00;1.60;;;;;;;;;;5013457;28;20054;-68
2022/01/06 10:34:07;;;;;;;15.35;1.83;;;;;;;;;;5012997;28;20393;-70
2022/01/06 10:36:36;;;;;;;16.83;2.05;;;;;;;;;;5012227;28;20037;-67
2022/01/06 10:39:06;;;;;;;19.63;2.15;;;;;;;;;;5013328;28;20052;-67
2022/01/06 10:41:34;;;;;;;21.00;2.20;;;;;;;;;;5012933;28;20052;-69
2022/01/06 10:44:01;;;;;;;20.63;2.33;;;;;;;;;;5012218;28;20033;-68
2022/01/06 10:46:32;;;;;;;17.77;2.00;;;;;;;;;;5013296;28;20022;-67
2022/01/06 10:49:00;;;;;;;17.85;2.05;;;;;;;;;;5012367;28;20020;-67
2022/01/06 10:51:38;;;;;;;22.10;2.25;;;;;;;;;;5012591;28;20482;-67
2022/01/06 10:54:06;;;;;;;17.80;2.35;;;;;;;;;;5012111;28;20077;-67
2022/01/06 10:56:33;;;;;;;14.68;2.38;;;;;;;;;;5010677;28;20381;-68
2022/01/06 10:59:00;;;;;;;28.58;2.65;;;;;;;;;;5013101;28;20037;-67
2022/01/06 11:01:32;;;;;;;25.80;2.28;;;;;;;;;;5012835;28;20030;-67
2022/01/06 11:03:59;;;;;;;14.07;2.00;;;;;;;;;;5011761;28;20421;-66
2022/01/06 11:06:26;;;;;;;24.65;2.63;;;;;;;;;;5012884;28;20083;-68
2022/01/06 11:08:54;;;;;;;19.58;2.75;;;;;;;;;;5027737;28;20026;-69
2022/01/06 11:11:42;;;;;;;16.77;2.03;;;;;;;;;;5012633;28;20048;-67
2022/01/06 11:14:14;;;;;;;21.20;2.40;;;;;;;;;;5011909;28;20376;-68
2022/01/06 11:16:43;;;;;;;19.83;2.25;;;;;;;;;;5011516;28;20026;-66
2022/01/06 11:19:11;;;;;;;22.30;2.20;;;;;;;;;;5012631;28;20088;-67
2022/01/06 11:21:40;;;;;;;19.25;2.15;;;;;;;;;;5012335;28;20021;-67
2022/01/06 11:24:10;;;;;;;27.52;2.70;;;;;;;;;;5011848;28;20038;-67
2022/01/06 11:26:37;;;;;;;21.52;2.55;;;;;;;;;;5012013;28;20056;-69
2022/01/06 11:29:04;;;;;;;9.98;2.20;;;;;;;;;;5012266;28;20021;-70
2022/01/06 11:31:39;;;;;;;15.15;2.17;;;;;;;;;;5012257;28;20718;-68
2022/01/06 11:34:14;;;;;;;15.60;1.80;;;;;;;;;;5010339;28;20576;-66
2022/01/06 11:36:41;;;;;;;11.65;2.35;;;;;;;;;;5011930;28;20028;-67
2022/01/06 11:39:09;;;;;;;21.42;3.45;;;;;;;;;;5012118;28;20026;-67
2022/01/06 11:41:40;;;;;;;15.15;1.85;;;;;;;;;;5011419;28;20405;-68
2022/01/06 11:44:21;;;;;;;24.58;2.58;;;;;;;;;;5012044;28;20042;-68
2022/01/06 11:46:50;;;;;;;23.65;2.53;;;;;;;;;;5011062;28;20022;-66
2022/01/06 11:49:29;;;;;;;26.50;3.40;;;;;;;;;;5012235;28;20025;-66
2022/01/06 11:52:04;;;;;;;22.67;3.25;;;;;;;;;;5011454;28;20028;-68
2022/01/06 11:54:31;;;;;;;15.20;2.70;;;;;;;;;;5011261;28;20433;-68
2022/01/06 11:56:58;;;;;;;19.58;2.83;;;;;;;;;;5011794;28;20101;-68
2022/01/06 11:59:36;;;;;;;17.00;2.42;;;;;;;;;;5012027;28;20026;-67
2022/01/06 12:02:03;;;;;;;9.20;1.90;;;;;;;;;;5011675;28;20432;-68
2022/01/06 12:04:30;;;;;;;16.13;2.15;;;;;;;;;;5010678;28;20037;-67
2022/01/06 12:07:08;;;;;;;20.10;2.60;;;;;;;;;;5010987;28;20042;-69
2022/01/06 12:09:35;;;;;;;17.38;2.65;;;;;;;;;;5010156;28;20038;-69
2022/01/06 12:12:03;;;;;;;21.63;2.50;;;;;;;;;;5011767;28;20075;-68
2022/01/06 12:14:31;;;;;;;25.65;3.35;;;;;;;;;;5011211;28;20132;-68
2022/01/06 12:17:05;;;;;;;17.58;2.78;;;;;;;;;;5011356;28;20033;-68
2022/01/06 12:19:32;;;;;;;22.42;2.95;;;;;;;;;;5010021;28;20045;-69
2022/01/06 12:22:00;;;;;;;19.52;2.40;;;;;;;;;;5010562;28;20039;-71
2022/01/06 12:24:27;;;;;;;22.55;2.67;;;;;;;;;;5185740;23;20009;-68
2022/01/06 12:26:54;;;;;;;27.92;4.00;;;;;;;;;;5010715;28;20022;-67
2022/01/06 12:29:24;;;;;;;19.90;2.83;;;;;;;;;;5010385;28;20072;-67
2022/01/06 12:31:51;;;;;;;26.00;3.10;;;;;;;;;;5017659;28;20025;-67
2022/01/06 12:34:20;;;;;;;18.42;3.58;;;;;;;;;;5030744;28;20033;-68
2022/01/06 12:36:47;;;;;;;20.23;2.97;;;;;;;;;;5030689;28;20423;-69
2022/01/06 12:39:14;;;;;;;17.48;2.15;;;;;;;;;;5030679;28;20026;-68
2022/01/06 12:41:41;;;;;;;20.67;2.97;;;;;;;;;;5029197;28;20377;-66
2022/01/06 12:44:09;;;;;;;13.75;2.70;;;;;;;;;;5031920;28;20036;-68
2022/01/06 12:46:37;;;;;;;22.67;3.20;;;;;;;;;;5030467;28;20022;-68
2022/01/06 12:49:08;;;;;;;17.00;2.50;;;;;;;;;;5030636;28;20036;-67
2022/01/06 12:51:36;;;;;;;14.15;2.22;;;;;;;;;;5029680;28;20408;-68
2022/01/06 12:54:17;;;;;;;15.20;2.42;;;;;;;;;;5030298;28;20029;-67
2022/01/06 12:56:47;;;;;;;13.13;2.42;;;;;;;;;;5026817;28;20029;-67
2022/01/06 12:59:15;;;;;;;9.73;2.40;;;;;;;;;;5030810;28;20030;-68
2022/01/06 13:01:43;;;;;;;9.07;2.47;;;;;;;;;;5030390;28;20606;-67
2022/01/06 13:04:11;;;;;;;11.40;3.42;;;;;;;;;;5030370;28;20080;-67
2022/01/06 13:06:39;;;;;;;13.77;2.70;;;;;;;;;;5028800;28;20501;-67
2022/01/06 13:09:17;;;;;;;23.92;3.25;;;;;;;;;;5030184;28;20357;-67
2022/01/06 13:11:48;;;;;;;14.10;3.15;;;;;;;;;;5030058;28;20156;-67
2022/01/06 13:14:33;;;;;;;12.98;2.72;;;;;;;;;;5030101;28;20443;-67
2022/01/06 13:17:07;;;;;;;12.45;2.33;;;;;;;;;;5023627;28;20676;-68
2022/01/06 13:19:36;;;;;;;12.43;2.20;;;;;;;;;;5032596;28;20013;-68
2022/01/06 13:22:05;;;;;;;22.40;2.90;;;;;;;;;;5033520;28;20029;-67
2022/01/06 13:24:34;;;;;;;13.52;2.17;;;;;;;;;;5032755;28;20037;-68
2022/01/06 13:27:01;;;;;;;18.73;2.88;;;;;;;;;;5032396;28;20503;-68
2022/01/06 13:29:35;;;;;;;12.50;2.20;;;;;;;;;;5033883;28;20037;-68
2022/01/06 13:32:05;;;;;;;13.77;2.38;;;;;;;;;;5032797;28;20017;-67
2022/01/06 13:56:06;;;;;;;26.30;3.25;;;;;;;;;;5041365;27;2510411;-68
2022/01/06 13:58:37;;;;;;;19.38;2.90;;;;;;;;;;5106947;28;20035;-68
2022/01/06 14:01:05;;;;;;;26.75;2.92;;;;;;;;;;5107316;28;20026;-67
2022/01/06 14:03:33;;;;;;;27.60;2.90;;;;;;;;;;5110590;28;20022;-68
2022/01/06 14:06:04;;;;;;;32.70;3.60;;;;;;;;;;5101996;28;20503;-67
2022/01/06 14:08:32;;;;;;;24.00;3.58;;;;;;;;;;5096044;28;20023;-68
2022/01/06 14:11:00;;;;;;;39.88;4.82;;;;;;;;;;5106593;28;20089;-68
2022/01/06 14:13:26;;;;;;;28.15;3.67;;;;;;;;;;5087241;28;20032;-67
2022/01/06 14:15:54;;;;;;;30.27;3.35;;;;;;;;;;5106634;28;20718;-66
2022/01/06 14:18:21;;;;;;;19.13;2.75;;;;;;;;;;5107047;28;20019;-68
2022/01/06 14:20:48;;;;;;;36.15;3.63;;;;;;;;;;5105959;28;20035;-67
2022/01/06 14:23:15;;;;;;;27.08;3.30;;;;;;;;;;5106535;28;20161;-67
2022/01/06 14:25:45;;;;;;;37.00;2.97;;;;;;;;;;5088589;28;20049;-68
2022/01/06 14:28:12;;;;;;;36.28;3.63;;;;;;;;;;5099255;28;20106;-68
2022/01/06 14:30:41;;;;;;;31.52;3.00;;;;;;;;;;5114331;28;20099;-71
2022/01/06 14:33:08;;;;;;;32.08;3.67;;;;;;;;;;5110738;28;21354;-67
2022/01/06 14:35:36;;;;;;;35.25;3.72;;;;;;;;;;5091203;28;20036;-66
2022/01/06 14:38:04;;;;;;;22.70;3.35;;;;;;;;;;5110609;28;20110;-69
2022/01/06 14:40:31;;;;;;;33.83;3.70;;;;;;;;;;5116593;28;20019;-68
2022/01/06 14:42:59;;;;;;;35.35;3.80;;;;;;;;;;5105130;28;20500;-69
2022/01/06 14:45:34;;;;;;;33.38;4.05;;;;;;;;;;5073711;28;20107;-70
2022/01/06 14:48:05;;;;;;;30.98;3.63;;;;;;;;;;5084426;28;20104;-70
2022/01/06 14:57:05;;;;;;;49.15;4.88;;;;;;;;;;5040495;28;20049;-70
2022/01/06 14:59:32;;;;;;;27.73;4.18;;;;;;;;;;5044186;28;20501;-69
2022/01/06 15:05:03;;;;;;;31.17;5.07;;;;;;;;;;5043561;28;20039;-68
2022/01/06 15:07:30;;;;;;;36.90;4.63;;;;;;;;;;5044697;28;20498;-67
2022/01/06 15:25:15;;;;;;;25.70;4.00;;;;;;;;;;5030493;28;20045;-68
2022/01/06 15:27:43;;;;;;;32.13;3.60;;;;;;;;;;5014252;28;20084;-67
2022/01/06 16:09:10;;;;;;;49.38;5.15;;;;;;;;;;5019032;28;20040;-66
2022/01/06 16:11:41;;;;;;;46.35;5.35;;;;;;;;;;5013577;28;20455;-67
2022/01/06 16:14:09;;;;;;;45.05;5.50;;;;;;;;;;5022730;28;20064;-72
2022/01/06 16:16:38;;;;;;;37.90;4.45;;;;;;;;;;5021554;28;20026;-68